Time;durP1;ratioP1;P1;durP2;ratioP2;P2;SDS_P1;SDS_P2;PMS_P1;PMS_P2;Temp;Humidity;BMP_temperature;BMP_pressure;BME280_temperature;BME280_humidity;BME280_pressure;Samples;Min_cycle;Max_cycle;Signal;HPM_P1;HPM_P2
2022/12/13 00:01:52;;;;;;;0.70;0.70;;;10.80;69.90;;;;;;5046492;28;20462;-80
2022/12/13 00:04:21;;;;;;;2.83;0.95;;;10.80;69.80;;;;;;5045188;28;20404;-81
2022/12/13 00:06:48;;;;;;;1.33;0.95;;;10.80;69.80;;;;;;5039666;28;20053;-81
2022/12/13 00:09:15;;;;;;;1.38;0.65;;;10.80;69.80;;;;;;5038158;28;20085;-81
2022/12/13 00:11:41;;;;;;;1.10;0.93;;;10.80;69.70;;;;;;5047600;28;20512;-83
2022/12/13 00:14:07;;;;;;;0.60;0.60;;;10.80;69.70;;;;;;5044837;28;20025;-82
2022/12/13 00:16:33;;;;;;;0.80;0.80;;;10.80;69.60;;;;;;5029008;28;20032;-83
2022/12/13 00:19:00;;;;;;;0.50;0.50;;;10.80;69.60;;;;;;5028712;28;20039;-82
2022/12/13 00:21:30;;;;;;;0.70;0.70;;;10.80;69.50;;;;;;5043286;28;20036;-80
2022/12/13 00:23:57;;;;;;;0.50;0.50;;;10.80;69.60;;;;;;5012503;28;20029;-82
2022/12/13 00:26:29;;;;;;;2.92;1.27;;;10.80;69.60;;;;;;5020387;28;20037;-83
2022/12/13 00:28:57;;;;;;;1.20;0.85;;;10.80;69.60;;;;;;5004854;28;20038;-82
2022/12/13 00:31:24;;;;;;;3.22;0.80;;;10.80;69.60;;;;;;5024012;28;20034;-82
2022/12/13 00:33:51;;;;;;;1.38;0.90;;;10.80;69.60;;;;;;5035591;28;20034;-82
2022/12/13 00:36:17;;;;;;;1.05;0.80;;;10.80;69.50;;;;;;5036186;28;20127;-81
2022/12/13 00:38:43;;;;;;;0.50;0.50;;;10.80;69.50;;;;;;5028765;28;20076;-82
2022/12/13 00:41:14;;;;;;;0.70;0.70;;;10.80;69.60;;;;;;5010878;28;20032;-82
2022/12/13 00:43:41;;;;;;;0.60;0.60;;;10.70;69.50;;;;;;5052915;28;20060;-82
2022/12/13 00:46:14;;;;;;;0.65;0.65;;;10.80;69.50;;;;;;5045580;28;20053;-82
2022/12/13 00:48:40;;;;;;;0.80;0.70;;;10.80;69.60;;;;;;5043191;28;20396;-81
2022/12/13 00:51:11;;;;;;;0.80;0.63;;;10.80;69.60;;;;;;5010243;28;20033;-82
2022/12/13 00:53:37;;;;;;;0.75;0.75;;;10.80;69.60;;;;;;5042286;28;20032;-81
2022/12/13 00:56:08;;;;;;;0.60;0.60;;;10.80;69.60;;;;;;5045072;28;20029;-83
2022/12/13 00:58:34;;;;;;;0.70;0.50;;;10.70;69.50;;;;;;5045822;28;20029;-82
2022/12/13 01:01:08;;;;;;;0.75;0.75;;;10.80;69.50;;;;;;5028355;28;20551;-82
2022/12/13 01:03:35;;;;;;;0.68;0.65;;;10.80;69.50;;;;;;5043705;28;20029;-81
2022/12/13 01:06:07;;;;;;;1.15;0.90;;;10.80;69.40;;;;;;5011895;28;20116;-82
2022/12/13 01:08:33;;;;;;;1.48;0.95;;;10.80;69.30;;;;;;5024418;28;20508;-83
2022/12/13 01:10:59;;;;;;;0.60;0.60;;;10.70;69.30;;;;;;5045097;28;20040;-82
2022/12/13 01:13:24;;;;;;;0.80;0.80;;;10.70;69.30;;;;;;5060872;28;20088;-82
2022/12/13 01:15:50;;;;;;;0.77;0.77;;;10.70;69.30;;;;;;5046359;28;20092;-83
2022/12/13 01:18:17;;;;;;;0.60;0.60;;;10.70;69.40;;;;;;5044134;28;20094;-84
2022/12/13 01:20:57;;;;;;;0.80;0.80;;;10.70;69.40;;;;;;5060343;28;20033;-85
2022/12/13 01:23:23;;;;;;;1.10;0.77;;;10.70;69.30;;;;;;5041815;28;20025;-84
2022/12/13 01:25:49;;;;;;;1.00;0.90;;;10.70;69.30;;;;;;5011560;28;20036;-86
2022/12/13 01:28:15;;;;;;;0.98;0.82;;;10.70;69.30;;;;;;5026849;28;20029;-85
2022/12/13 01:30:40;;;;;;;1.02;0.82;;;10.70;69.40;;;;;;5010903;28;20044;-83
2022/12/13 01:33:06;;;;;;;1.25;1.10;;;10.70;69.30;;;;;;5047040;28;20029;-83
2022/12/13 01:35:35;;;;;;;2.25;0.80;;;10.70;69.30;;;;;;5030716;28;20078;-84
2022/12/13 01:38:01;;;;;;;1.38;0.90;;;10.70;69.40;;;;;;5044784;28;20136;-84
2022/12/13 01:40:27;;;;;;;1.10;0.98;;;10.70;69.40;;;;;;5048842;28;20112;-84
2022/12/13 01:42:53;;;;;;;1.08;0.73;;;10.70;69.40;;;;;;5061992;28;20041;-81
2022/12/13 01:45:27;;;;;;;0.82;0.80;;;10.70;69.40;;;;;;5041773;28;20033;-86
2022/12/13 01:48:06;;;;;;;1.00;0.90;;;10.70;69.30;;;;;;5045844;28;20454;-84
2022/12/13 01:50:37;;;;;;;1.73;0.90;;;10.70;69.30;;;;;;5043808;28;20041;-85
2022/12/13 01:53:06;;;;;;;1.30;1.20;;;10.70;69.30;;;;;;5027461;28;20033;-86
2022/12/13 01:55:36;;;;;;;1.38;0.95;;;10.70;69.30;;;;;;5047476;28;20037;-86
2022/12/13 01:58:03;;;;;;;1.00;0.90;;;10.70;69.30;;;;;;5030911;28;20037;-86
2022/12/13 02:00:31;;;;;;;1.00;0.90;;;10.70;69.30;;;;;;5030566;28;20051;-83
2022/12/13 02:02:58;;;;;;;1.05;0.95;;;10.70;69.30;;;;;;5048157;28;20029;-85
2022/12/13 02:05:32;;;;;;;3.60;1.23;;;10.70;69.30;;;;;;5044035;28;20123;-85
2022/12/13 02:08:00;;;;;;;1.73;1.17;;;10.70;69.30;;;;;;5029839;28;20025;-85
2022/12/13 02:10:26;;;;;;;1.63;0.98;;;10.70;69.20;;;;;;5015636;28;20492;-85
2022/12/13 02:12:53;;;;;;;1.67;1.08;;;10.70;69.20;;;;;;5058763;28;20037;-86
2022/12/13 02:15:20;;;;;;;0.85;0.85;;;10.70;69.10;;;;;;5048687;28;20078;-85
2022/12/13 02:17:49;;;;;;;0.98;0.98;;;10.70;69.10;;;;;;5021864;28;20033;-86
2022/12/13 02:20:33;;;;;;;1.13;1.00;;;10.70;69.10;;;;;;5046712;28;20488;-85
2022/12/13 02:23:12;;;;;;;1.38;1.00;;;10.70;69.10;;;;;;5042417;28;20415;-83
2022/12/13 02:26:09;;;;;;;0.90;0.90;;;10.70;69.10;;;;;;5047417;28;20395;-84
2022/12/13 02:29:01;;;;;;;0.93;0.93;;;10.70;69.00;;;;;;5046185;28;20045;-84
2022/12/13 02:31:38;;;;;;;1.20;1.10;;;10.70;69.10;;;;;;5046391;28;20395;-84
2022/12/13 02:34:13;;;;;;;1.33;1.10;;;10.70;69.00;;;;;;5024978;28;20511;-82
2022/12/13 02:36:51;;;;;;;0.95;0.95;;;10.70;69.00;;;;;;5062230;28;20519;-83
2022/12/13 02:39:26;;;;;;;1.50;1.10;;;10.70;69.00;;;;;;5030590;28;20045;-83
2022/12/13 02:41:55;;;;;;;;;;;10.70;68.90;;;;;;5029543;28;20033;-82
2022/12/13 02:44:54;;;;;;;2.70;1.13;;;10.70;68.90;;;;;;5063834;28;20346;-82
2022/12/13 02:47:24;;;;;;;0.85;0.85;;;10.70;68.90;;;;;;5050866;28;20412;-82
2022/12/13 02:50:00;;;;;;;0.85;0.85;;;10.70;68.80;;;;;;5048531;28;20855;-82
2022/12/13 02:52:29;;;;;;;1.27;1.00;;;10.70;68.80;;;;;;5064019;28;20503;-82
2022/12/13 02:54:56;;;;;;;1.42;1.33;;;10.70;68.90;;;;;;5029978;28;20025;-83
2022/12/13 02:57:31;;;;;;;0.95;0.95;;;10.70;68.80;;;;;;5045978;28;20029;-82
2022/12/13 03:00:02;;;;;;;2.08;1.50;;;10.60;68.70;;;;;;5030975;28;20056;-82
2022/12/13 03:02:43;;;;;;;1.48;1.33;;;10.60;68.60;;;;;;5013859;28;20048;-82
2022/12/13 03:08:27;;;;;;;1.40;1.30;;;10.60;68.60;;;;;;5046297;28;20146;-81
2022/12/13 03:11:07;;;;;;;2.47;1.30;;;10.60;68.60;;;;;;5025573;28;20032;-83
2022/12/13 03:13:43;;;;;;;1.50;1.20;;;10.70;68.70;;;;;;5043587;28;20025;-82
2022/12/13 03:16:20;;;;;;;1.58;0.95;;;10.60;68.60;;;;;;5040693;28;20032;-81
2022/12/13 03:18:47;;;;;;;1.50;1.40;;;10.60;68.70;;;;;;5063893;28;20040;-85
2022/12/13 03:21:13;;;;;;;2.20;1.40;;;10.60;68.60;;;;;;5047284;28;20369;-83
2022/12/13 03:23:40;;;;;;;1.90;1.25;;;10.60;68.50;;;;;;5046716;28;20561;-85
2022/12/13 03:26:10;;;;;;;1.40;1.30;;;10.60;68.50;;;;;;5050406;28;20021;-84
2022/12/13 03:28:37;;;;;;;1.83;1.52;;;10.60;68.50;;;;;;5046444;28;20040;-84
2022/12/13 03:31:04;;;;;;;1.90;1.45;;;10.60;68.50;;;;;;5042461;28;20587;-84
2022/12/13 03:33:30;;;;;;;1.30;1.20;;;10.60;68.50;;;;;;5047274;28;20033;-82
2022/12/13 03:35:56;;;;;;;3.25;1.23;;;10.60;68.40;;;;;;5029415;28;20094;-84
2022/12/13 03:38:23;;;;;;;1.73;1.60;;;10.60;68.40;;;;;;5044440;28;20091;-84
2022/12/13 03:40:57;;;;;;;4.03;1.50;;;10.60;68.40;;;;;;5029297;28;20028;-82
2022/12/13 03:43:24;;;;;;;1.65;1.40;;;10.60;68.40;;;;;;5028059;28;20102;-81
2022/12/13 03:45:52;;;;;;;1.80;1.20;;;10.60;68.40;;;;;;5013095;28;21919;-82
2022/12/13 03:48:19;;;;;;;1.50;1.27;;;10.60;68.40;;;;;;5051447;28;20032;-89
2022/12/13 03:50:46;;;;;;;1.50;1.40;;;10.60;68.40;;;;;;5011225;28;20086;-93
2022/12/13 03:53:14;;;;;;;1.67;1.40;;;10.60;68.40;;;;;;5027603;28;20500;-92
2022/12/13 03:55:45;;;;;;;1.33;1.30;;;10.60;68.40;;;;;;5032474;28;20170;-94
2022/12/13 03:58:12;;;;;;;2.72;1.77;;;10.60;68.30;;;;;;5055004;28;20065;-92
2022/12/13 04:00:43;;;;;;;1.88;1.65;;;10.60;68.40;;;;;;5046312;28;20407;-86
2022/12/13 04:03:10;;;;;;;2.55;1.88;;;10.60;68.50;;;;;;5027147;28;20040;-90
2022/12/13 04:05:37;;;;;;;2.20;2.00;;;10.60;68.50;;;;;;5024962;28;20047;-91
2022/12/13 04:08:11;;;;;;;2.03;1.80;;;10.60;68.50;;;;;;5010814;28;20043;-90
2022/12/13 04:10:48;;;;;;;3.50;1.83;;;10.60;68.60;;;;;;5027094;28;20392;-75
2022/12/13 04:13:33;;;;;;;2.90;1.80;;;10.60;68.70;;;;;;5040592;28;20421;-75
2022/12/13 04:16:01;;;;;;;1.77;1.67;;;10.60;68.70;;;;;;5027658;28;20526;-75
2022/12/13 04:18:27;;;;;;;2.50;2.30;;;10.60;68.60;;;;;;5040998;28;20052;-76
2022/12/13 04:20:53;;;;;;;2.47;1.90;;;10.60;68.60;;;;;;5047516;28;20033;-76
2022/12/13 04:23:19;;;;;;;2.33;1.95;;;10.60;68.60;;;;;;5047956;28;20060;-76
2022/12/13 04:25:45;;;;;;;2.17;1.98;;;10.60;68.60;;;;;;5045385;28;20035;-76
2022/12/13 04:28:11;;;;;;;3.45;2.10;;;10.60;68.70;;;;;;5044759;28;20037;-75
2022/12/13 04:30:37;;;;;;;3.15;1.75;;;10.60;68.60;;;;;;5040991;28;20450;-75
2022/12/13 04:33:04;;;;;;;2.00;1.88;;;10.60;68.70;;;;;;5043224;28;20041;-75
2022/12/13 04:35:30;;;;;;;1.98;1.77;;;10.60;68.70;;;;;;5044045;28;20036;-74
2022/12/13 04:37:56;;;;;;;1.83;1.60;;;10.60;68.80;;;;;;5041921;28;20435;-78
2022/12/13 04:40:23;;;;;;;2.35;1.67;;;10.60;68.80;;;;;;5041791;28;20123;-81
2022/12/13 04:42:49;;;;;;;2.05;1.77;;;10.60;68.90;;;;;;5043450;28;20048;-85
2022/12/13 04:45:16;;;;;;;4.60;1.92;;;10.60;68.90;;;;;;5039609;28;20033;-76
2022/12/13 04:47:42;;;;;;;2.42;2.05;;;10.60;69.10;;;;;;5042797;28;20037;-74
2022/12/13 04:50:08;;;;;;;4.35;1.70;;;10.60;69.30;;;;;;5043629;28;20050;-73
2022/12/13 04:52:34;;;;;;;2.20;1.83;;;10.60;69.50;;;;;;5042868;28;20025;-74
2022/12/13 04:55:00;;;;;;;2.25;1.77;;;10.70;69.70;;;;;;5040898;28;20034;-73
2022/12/13 04:57:26;;;;;;;3.47;1.63;;;10.60;69.80;;;;;;5042240;28;20045;-73
2022/12/13 04:59:52;;;;;;;3.85;1.88;;;10.60;70.40;;;;;;5042887;28;20048;-73
2022/12/13 05:02:18;;;;;;;3.67;1.80;;;10.70;70.80;;;;;;5044433;28;20045;-73
2022/12/13 05:04:46;;;;;;;2.80;1.67;;;10.70;71.10;;;;;;5044562;28;20044;-73
2022/12/13 05:07:12;;;;;;;2.35;1.60;;;10.70;71.50;;;;;;5045887;28;20517;-73
2022/12/13 05:09:38;;;;;;;2.83;1.63;;;10.70;71.50;;;;;;5046980;28;20041;-74
2022/12/13 05:12:04;;;;;;;3.42;1.80;;;10.70;72.00;;;;;;5045953;28;20037;-73
2022/12/13 05:14:31;;;;;;;2.53;1.77;;;10.70;72.20;;;;;;5047926;28;20093;-73
2022/12/13 05:16:58;;;;;;;4.57;2.33;;;10.80;72.50;;;;;;5046917;28;20033;-73
2022/12/13 05:19:24;;;;;;;3.30;2.00;;;10.80;72.50;;;;;;5041737;28;20075;-73
2022/12/13 05:21:50;;;;;;;3.30;1.75;;;10.80;72.70;;;;;;5046716;28;20118;-73
2022/12/13 05:24:16;;;;;;;2.25;1.92;;;10.80;72.70;;;;;;5047465;28;20633;-73
2022/12/13 05:26:42;;;;;;;3.28;2.47;;;10.80;72.70;;;;;;5045207;28;20120;-74
2022/12/13 05:29:08;;;;;;;3.88;2.00;;;10.80;72.70;;;;;;5044948;28;20035;-73
2022/12/13 05:31:34;;;;;;;3.88;1.70;;;10.80;72.50;;;;;;5046226;28;20120;-74
2022/12/13 05:34:00;;;;;;;4.50;1.67;;;10.90;72.70;;;;;;5045338;28;20052;-74
2022/12/13 05:36:27;;;;;;;1.92;1.50;;;10.90;72.70;;;;;;5042318;28;20042;-74
2022/12/13 05:38:53;;;;;;;3.15;1.60;;;10.90;72.60;;;;;;5046869;28;20033;-74
2022/12/13 05:41:23;;;;;;;2.22;2.00;;;10.90;72.70;;;;;;5046969;28;20049;-74
2022/12/13 05:43:50;;;;;;;2.15;1.77;;;10.90;72.70;;;;;;5047512;28;20072;-74
2022/12/13 05:46:17;;;;;;;1.95;1.70;;;10.90;72.90;;;;;;5046213;28;20403;-75
2022/12/13 05:48:43;;;;;;;3.08;1.58;;;11.00;73.10;;;;;;5047410;28;20131;-75
2022/12/13 05:51:10;;;;;;;3.42;1.67;;;11.00;73.10;;;;;;5029970;28;20026;-75
2022/12/13 05:53:36;;;;;;;3.10;1.85;;;11.00;73.40;;;;;;5046028;28;20033;-75
2022/12/13 05:56:03;;;;;;;3.78;1.75;;;11.00;73.60;;;;;;5045792;28;20036;-75
2022/12/13 05:58:29;;;;;;;3.25;1.50;;;11.00;73.70;;;;;;5047842;28;20078;-75
2022/12/13 06:01:02;;;;;;;2.60;1.67;;;11.00;73.90;;;;;;5061986;28;20060;-75
2022/12/13 06:03:28;;;;;;;4.13;1.67;;;11.00;74.10;;;;;;5066521;28;20036;-75
2022/12/13 06:05:54;;;;;;;4.68;2.17;;;11.00;74.10;;;;;;5067093;28;20045;-75
2022/12/13 06:08:20;;;;;;;3.75;1.83;;;11.10;74.10;;;;;;5063108;28;20059;-76
2022/12/13 06:10:56;;;;;;;2.70;1.92;;;11.00;74.10;;;;;;5055011;28;20048;-75
2022/12/13 06:13:23;;;;;;;1.98;1.73;;;11.10;74.10;;;;;;5047805;28;20075;-76
2022/12/13 06:15:49;;;;;;;3.67;1.83;;;11.10;74.10;;;;;;5046759;28;20037;-76
2022/12/13 06:18:15;;;;;;;2.33;2.10;;;11.10;74.00;;;;;;5045350;28;20056;-76
2022/12/13 06:20:41;;;;;;;3.30;2.20;;;11.10;74.00;;;;;;5028642;28;20744;-75
2022/12/13 06:23:07;;;;;;;3.78;2.00;;;11.10;73.90;;;;;;5046426;28;20458;-75
2022/12/13 06:25:34;;;;;;;4.03;2.25;;;11.20;73.90;;;;;;5045717;28;20506;-75
2022/12/13 06:28:01;;;;;;;3.38;2.33;;;11.10;73.90;;;;;;5040626;28;20454;-75
2022/12/13 06:30:27;;;;;;;5.85;2.20;;;11.10;73.80;;;;;;5044642;28;20060;-74
2022/12/13 06:32:54;;;;;;;4.45;2.22;;;11.10;73.80;;;;;;5043362;28;20060;-75
2022/12/13 06:35:19;;;;;;;3.45;2.20;;;11.20;73.80;;;;;;5046501;28;20029;-75
2022/12/13 06:37:45;;;;;;;2.40;2.20;;;11.20;73.60;;;;;;5047213;28;20039;-74
2022/12/13 06:40:11;;;;;;;2.30;2.05;;;11.20;73.70;;;;;;5046647;28;20511;-75
2022/12/13 06:42:37;;;;;;;4.95;1.83;;;11.20;73.70;;;;;;5043755;28;20439;-74
2022/12/13 06:45:04;;;;;;;2.92;1.98;;;11.20;73.50;;;;;;5045939;28;20136;-75
2022/12/13 06:47:29;;;;;;;3.20;2.53;;;11.20;73.40;;;;;;5045332;28;20128;-74
2022/12/13 06:49:55;;;;;;;3.35;1.90;;;11.20;73.30;;;;;;5044050;28;20124;-75
2022/12/13 06:52:21;;;;;;;2.50;2.25;;;11.20;73.30;;;;;;5044288;28;20146;-75
2022/12/13 06:54:47;;;;;;;4.10;2.63;;;11.20;73.10;;;;;;5046076;28;20091;-75
2022/12/13 06:57:13;;;;;;;2.30;2.10;;;11.20;73.10;;;;;;5039874;28;20392;-75
2022/12/13 06:59:39;;;;;;;3.25;2.40;;;11.30;73.10;;;;;;5044920;28;20039;-75
2022/12/13 07:02:06;;;;;;;3.92;2.45;;;11.30;73.00;;;;;;5046300;28;20236;-75
2022/12/13 07:04:33;;;;;;;3.30;2.40;;;11.20;72.90;;;;;;5047426;28;20065;-74
2022/12/13 07:06:58;;;;;;;4.18;2.58;;;11.20;72.90;;;;;;5046607;28;20070;-73
2022/12/13 07:09:24;;;;;;;2.63;2.42;;;11.30;73.00;;;;;;5045097;28;20119;-74
2022/12/13 07:11:50;;;;;;;2.40;2.13;;;11.30;73.00;;;;;;5045176;28;20047;-73
2022/12/13 07:14:16;;;;;;;3.13;2.50;;;11.30;73.00;;;;;;5045196;28;20033;-73
2022/12/13 07:16:42;;;;;;;2.85;2.53;;;11.30;72.90;;;;;;5046966;28;20025;-74
2022/12/13 07:19:10;;;;;;;2.70;2.38;;;11.30;72.90;;;;;;5028052;28;20051;-74
2022/12/13 07:21:37;;;;;;;2.60;2.33;;;11.30;72.80;;;;;;5061028;28;20482;-74
2022/12/13 07:24:03;;;;;;;4.05;2.80;;;11.30;72.90;;;;;;5045116;28;20052;-74
2022/12/13 07:26:29;;;;;;;2.60;2.13;;;11.30;72.80;;;;;;5042635;28;20112;-74
2022/12/13 07:28:56;;;;;;;3.08;2.35;;;11.30;72.80;;;;;;5043441;28;20468;-72
2022/12/13 07:31:23;;;;;;;2.67;2.40;;;11.30;72.60;;;;;;5028643;28;20584;-73
2022/12/13 07:33:49;;;;;;;2.70;2.47;;;11.30;72.60;;;;;;5042682;28;20061;-74
2022/12/13 07:36:24;;;;;;;3.42;2.42;;;11.30;72.60;;;;;;5044076;28;20039;-73
2022/12/13 07:38:52;;;;;;;3.60;2.55;;;11.30;72.80;;;;;;5042687;28;20051;-74
2022/12/13 07:41:18;;;;;;;2.40;2.20;;;11.30;72.80;;;;;;5045761;28;20052;-74
2022/12/13 07:43:44;;;;;;;3.20;2.53;;;11.40;72.70;;;;;;5043930;28;20416;-74
2022/12/13 07:46:10;;;;;;;3.03;2.45;;;11.40;72.60;;;;;;5044805;28;20044;-74
2022/12/13 07:48:36;;;;;;;5.15;2.50;;;11.40;72.60;;;;;;5044804;28;20087;-74
2022/12/13 07:51:05;;;;;;;2.97;2.65;;;11.40;72.40;;;;;;5044480;28;20439;-74
2022/12/13 07:53:33;;;;;;;3.03;2.75;;;11.40;72.20;;;;;;5045499;28;20059;-73
2022/12/13 07:56:09;;;;;;;3.72;2.70;;;11.40;72.20;;;;;;5044321;28;21056;-73
2022/12/13 07:58:37;;;;;;;3.55;2.55;;;11.40;72.20;;;;;;5043461;28;20484;-74
2022/12/13 08:01:07;;;;;;;3.78;2.70;;;11.40;72.00;;;;;;5044398;28;20040;-74
2022/12/13 08:03:34;;;;;;;3.17;2.50;;;11.40;71.90;;;;;;5043531;28;20037;-74
2022/12/13 08:06:08;;;;;;;3.15;2.50;;;11.40;71.90;;;;;;5043374;28;20055;-74
2022/12/13 08:08:36;;;;;;;3.53;2.25;;;11.40;72.00;;;;;;5042647;28;20033;-74
2022/12/13 08:11:10;;;;;;;3.03;2.72;;;11.40;72.00;;;;;;5045493;28;20099;-74
2022/12/13 08:13:38;;;;;;;3.40;2.47;;;11.40;71.90;;;;;;5044985;28;20029;-73
2022/12/13 08:16:06;;;;;;;4.90;2.40;;;11.40;71.80;;;;;;5043855;28;20045;-74
2022/12/13 08:18:32;;;;;;;3.63;2.40;;;11.50;71.90;;;;;;5044730;28;20041;-74
2022/12/13 08:21:00;;;;;;;3.33;2.30;;;11.50;71.80;;;;;;5025256;28;20088;-74
2022/12/13 08:23:26;;;;;;;2.45;2.25;;;11.50;71.80;;;;;;5043453;28;20072;-74
2022/12/13 08:25:54;;;;;;;2.20;2.00;;;11.50;71.80;;;;;;5043668;28;20385;-73
2022/12/13 08:28:21;;;;;;;2.92;2.42;;;11.50;71.50;;;;;;5040394;28;20045;-73
2022/12/13 08:30:48;;;;;;;3.33;2.53;;;11.50;71.50;;;;;;5042984;28;20315;-74
2022/12/13 08:33:14;;;;;;;3.50;2.13;;;11.50;71.50;;;;;;5021426;28;20078;-73
2022/12/13 08:35:40;;;;;;;4.30;2.03;;;11.50;71.50;;;;;;5044143;28;20037;-73
2022/12/13 08:38:06;;;;;;;3.97;2.33;;;11.50;71.50;;;;;;5043527;28;20099;-73
2022/12/13 08:40:33;;;;;;;3.00;2.17;;;11.50;71.30;;;;;;5041064;28;20032;-73
2022/12/13 08:43:00;;;;;;;2.58;2.33;;;11.50;71.30;;;;;;5041216;28;20164;-74
2022/12/13 08:45:26;;;;;;;3.58;2.17;;;11.50;71.20;;;;;;5044451;28;20036;-74
2022/12/13 08:47:52;;;;;;;2.53;2.03;;;11.60;71.20;;;;;;5044479;28;20033;-73
2022/12/13 08:50:18;;;;;;;2.78;1.92;;;11.60;71.10;;;;;;5044489;28;20060;-74
2022/12/13 08:52:44;;;;;;;3.83;2.17;;;11.50;71.10;;;;;;5039987;28;20044;-73
2022/12/13 08:55:14;;;;;;;2.45;2.25;;;11.50;71.20;;;;;;5067987;28;20065;-73
2022/12/13 08:57:41;;;;;;;7.20;2.22;;;11.50;71.20;;;;;;5061669;28;20037;-74
2022/12/13 09:00:11;;;;;;;3.17;2.25;;;11.60;71.30;;;;;;5064104;28;20076;-73
2022/12/13 09:02:37;;;;;;;3.70;2.33;;;11.60;71.30;;;;;;5055802;28;20198;-74
2022/12/13 09:05:03;;;;;;;3.33;1.88;;;11.50;71.30;;;;;;5043020;28;20036;-73
2022/12/13 09:07:29;;;;;;;2.42;2.00;;;11.50;71.30;;;;;;5045460;28;20025;-73
2022/12/13 09:09:55;;;;;;;2.40;1.92;;;11.60;71.50;;;;;;5042690;28;20462;-73
2022/12/13 09:12:21;;;;;;;2.83;2.05;;;11.60;71.60;;;;;;5045191;28;20040;-72
2022/12/13 09:14:47;;;;;;;2.05;1.90;;;11.60;71.60;;;;;;5043741;28;20419;-72
2022/12/13 09:17:14;;;;;;;1.83;1.73;;;11.60;71.80;;;;;;5043387;28;20029;-72
2022/12/13 09:19:40;;;;;;;2.53;1.88;;;11.60;71.90;;;;;;5038716;28;20040;-73
2022/12/13 09:22:06;;;;;;;2.95;1.85;;;11.60;72.50;;;;;;5044188;28;20264;-72
2022/12/13 09:24:32;;;;;;;2.13;1.92;;;11.60;72.00;;;;;;5041947;28;20129;-71
2022/12/13 09:26:58;;;;;;;3.03;1.95;;;11.60;71.90;;;;;;5044757;28;20040;-73
2022/12/13 09:29:24;;;;;;;3.83;2.10;;;11.60;72.00;;;;;;5043324;28;20033;-73
2022/12/13 09:31:51;;;;;;;2.53;2.33;;;11.60;72.00;;;;;;5043281;28;20040;-73
2022/12/13 09:34:18;;;;;;;4.40;2.00;;;11.60;72.10;;;;;;5044042;28;20037;-75
2022/12/13 09:36:44;;;;;;;1.85;1.70;;;11.70;72.10;;;;;;5043698;28;20040;-77
2022/12/13 09:39:11;;;;;;;5.60;2.33;;;11.60;72.20;;;;;;5043209;28;20048;-77
2022/12/13 09:41:42;;;;;;;2.30;2.00;;;11.70;72.30;;;;;;5043723;28;20498;-74
2022/12/13 09:44:44;;;;;;;3.63;2.00;;;11.60;72.40;;;;;;5042112;28;20523;-76
2022/12/13 09:47:18;;;;;;;5.13;1.77;;;11.70;72.40;;;;;;5042529;28;20041;-73
2022/12/13 09:49:45;;;;;;;4.60;1.70;;;11.70;72.50;;;;;;5043280;28;20029;-74
2022/12/13 09:52:14;;;;;;;4.55;1.83;;;11.70;72.40;;;;;;5043897;28;20548;-75
2022/12/13 09:54:41;;;;;;;3.72;1.75;;;11.70;72.50;;;;;;5046519;28;20387;-74
2022/12/13 09:57:21;;;;;;;7.50;1.77;;;11.70;72.50;;;;;;5047633;28;21411;-75
2022/12/13 09:59:47;;;;;;;5.85;2.20;;;11.70;72.60;;;;;;5047301;28;20033;-74
2022/12/13 10:02:57;;;;;;;6.03;2.25;;;11.70;72.50;;;;;;5047354;28;20033;-76
2022/12/13 10:05:36;;;;;;;3.95;1.67;;;11.70;72.50;;;;;;5042996;28;20243;-76
2022/12/13 10:08:23;;;;;;;4.55;1.60;;;11.70;72.60;;;;;;5044888;28;20080;-76
2022/12/13 10:10:51;;;;;;;4.35;1.42;;;11.80;74.90;;;;;;5043760;28;20036;-74
2022/12/13 10:13:24;;;;;;;3.53;1.30;;;11.80;74.00;;;;;;5029367;28;20128;-76
2022/12/13 10:15:59;;;;;;;8.95;2.28;;;11.80;73.60;;;;;;5042102;28;20527;-76
2022/12/13 10:18:37;;;;;;;5.75;2.17;;;11.80;74.00;;;;;;5041924;28;20033;-76
2022/12/13 10:21:12;;;;;;;3.42;2.17;;;11.80;71.20;;;;;;5042284;28;20463;-76
2022/12/13 10:23:38;;;;;;;2.33;2.13;;;11.60;69.60;;;;;;5025780;28;20681;-75
2022/12/13 10:26:09;;;;;;;3.30;2.35;;;11.50;69.00;;;;;;5027016;28;20076;-76
2022/12/13 10:28:35;;;;;;;3.28;2.38;;;11.40;68.60;;;;;;5028611;28;20041;-74
2022/12/13 10:31:02;;;;;;;3.33;2.40;;;11.30;68.60;;;;;;5042673;28;20040;-75
2022/12/13 10:33:30;;;;;;;2.95;2.60;;;11.20;68.70;;;;;;5029570;28;20037;-75
2022/12/13 10:36:08;;;;;;;2.70;2.50;;;11.10;68.80;;;;;;5042358;28;20052;-75
2022/12/13 10:38:40;;;;;;;3.20;2.67;;;11.00;68.90;;;;;;5040956;28;20037;-74
2022/12/13 10:41:24;;;;;;;2.40;2.03;;;10.90;68.90;;;;;;5043628;28;20068;-75
2022/12/13 10:44:10;;;;;;;3.60;2.10;;;10.70;68.90;;;;;;5045583;28;20045;-74
2022/12/13 10:46:39;;;;;;;2.13;1.90;;;10.60;69.10;;;;;;5045554;28;20459;-75
2022/12/13 10:49:46;;;;;;;1.95;1.75;;;10.60;69.50;;;;;;5046333;28;20037;-75
2022/12/13 10:52:36;;;;;;;3.05;1.52;;;10.50;69.40;;;;;;5009871;28;20045;-75
2022/12/13 10:55:10;;;;;;;1.83;1.67;;;10.40;69.50;;;;;;4993261;28;20140;-75
2022/12/13 10:57:36;;;;;;;2.38;1.65;;;10.30;69.60;;;;;;5010838;28;20537;-74
2022/12/13 11:00:23;;;;;;;1.85;1.40;;;10.30;70.00;;;;;;4996031;28;20182;-73
2022/12/13 11:02:58;;;;;;;2.08;1.40;;;10.20;70.20;;;;;;5006738;28;20693;-75
2022/12/13 11:05:32;;;;;;;3.90;1.73;;;10.10;70.00;;;;;;5008958;28;20033;-76
2022/12/13 11:08:25;;;;;;;3.42;1.50;;;10.10;70.10;;;;;;5010169;28;20080;-75
2022/12/13 11:11:02;;;;;;;3.20;1.70;;;9.90;70.20;;;;;;5003951;28;20044;-75
2022/12/13 11:13:37;;;;;;;2.20;2.00;;;9.90;70.40;;;;;;5009171;28;20060;-75
2022/12/13 11:16:17;;;;;;;3.17;1.73;;;9.90;70.60;;;;;;5009316;28;20034;-75
2022/12/13 11:18:51;;;;;;;2.70;1.90;;;9.80;70.60;;;;;;4999077;28;20033;-75
2022/12/13 11:21:27;;;;;;;2.50;1.90;;;9.80;71.00;;;;;;5008157;28;20255;-76
2022/12/13 11:24:00;;;;;;;2.90;2.00;;;9.70;70.70;;;;;;4990808;28;20096;-75
2022/12/13 11:26:27;;;;;;;3.92;1.70;;;9.70;70.80;;;;;;4989709;28;20038;-75
2022/12/13 11:28:53;;;;;;;2.10;1.90;;;9.60;70.70;;;;;;5039479;28;20408;-75
2022/12/13 11:31:19;;;;;;;2.92;1.90;;;9.60;70.80;;;;;;5049705;28;20072;-75
2022/12/13 11:33:50;;;;;;;4.40;2.05;;;9.60;70.80;;;;;;5050054;28;20415;-75
2022/12/13 11:36:41;;;;;;;4.22;1.92;;;9.50;71.00;;;;;;5051029;28;20048;-75
2022/12/13 11:39:41;;;;;;;2.47;2.17;;;9.50;71.00;;;;;;5048598;28;20043;-75
2022/12/13 11:42:33;;;;;;;3.15;1.80;;;9.40;71.10;;;;;;5048583;28;20067;-74
2022/12/13 11:45:13;;;;;;;2.20;2.00;;;9.40;71.30;;;;;;5040174;28;20157;-74
2022/12/13 11:47:42;;;;;;;2.80;2.20;;;9.40;71.50;;;;;;5056652;28;20084;-75
2022/12/13 11:50:24;;;;;;;5.18;2.05;;;9.40;71.50;;;;;;5065020;28;20067;-75
2022/12/13 11:52:58;;;;;;;3.90;2.10;;;9.30;71.30;;;;;;5044752;28;20029;-75
2022/12/13 11:55:36;;;;;;;2.22;2.03;;;9.30;70.90;;;;;;5043223;28;20048;-75
2022/12/13 11:58:26;;;;;;;3.13;1.92;;;9.30;70.90;;;;;;5050818;28;20064;-75
2022/12/13 12:01:02;;;;;;;3.78;2.25;;;9.20;70.70;;;;;;5046655;28;20045;-76
2022/12/13 12:03:48;;;;;;;3.50;2.35;;;9.20;70.70;;;;;;5044659;28;20052;-74
2022/12/13 12:06:21;;;;;;;3.90;2.38;;;9.20;70.70;;;;;;5044731;28;20423;-75
2022/12/13 12:08:58;;;;;;;3.13;2.63;;;9.20;70.80;;;;;;5043069;28;20751;-74
2022/12/13 12:11:30;;;;;;;3.10;2.58;;;9.10;70.90;;;;;;5042567;28;20504;-75
2022/12/13 12:14:22;;;;;;;3.90;2.90;;;9.10;70.90;;;;;;5042669;28;20440;-75
2022/12/13 12:16:54;;;;;;;5.05;2.80;;;9.10;71.10;;;;;;5061313;28;20029;-75
2022/12/13 12:19:35;;;;;;;3.35;2.70;;;9.00;71.00;;;;;;5043517;28;20047;-74
2022/12/13 12:22:28;;;;;;;3.75;2.42;;;9.10;71.80;;;;;;5042553;28;20511;-74
2022/12/13 12:24:54;;;;;;;3.42;1.70;;;9.20;73.30;;;;;;5037431;28;20053;-74
2022/12/13 12:27:36;;;;;;;2.10;1.70;;;9.60;80.90;;;;;;5044470;28;20582;-75
2022/12/13 12:30:02;;;;;;;2.17;1.80;;;9.80;78.10;;;;;;5046775;28;20450;-75
2022/12/13 12:32:37;;;;;;;2.63;1.70;;;9.90;76.30;;;;;;5048896;28;20120;-76
2022/12/13 12:35:23;;;;;;;3.08;1.92;;;10.00;75.60;;;;;;5047181;28;20503;-72
2022/12/13 12:38:19;;;;;;;3.60;2.20;;;10.10;74.90;;;;;;5044699;28;20029;-73
2022/12/13 12:40:45;;;;;;;3.45;2.22;;;10.10;74.30;;;;;;5049236;28;20033;-73
2022/12/13 12:43:41;;;;;;;4.63;2.83;;;10.20;73.70;;;;;;5048462;28;20136;-74
2022/12/13 12:46:27;;;;;;;3.60;2.53;;;10.20;73.40;;;;;;5042899;28;20167;-74
2022/12/13 12:49:15;;;;;;;3.50;2.40;;;10.30;73.00;;;;;;5048884;28;20466;-73
2022/12/13 12:52:09;;;;;;;3.47;2.65;;;10.30;72.70;;;;;;5046212;28;20575;-73
2022/12/13 12:54:40;;;;;;;5.03;2.92;;;10.40;72.50;;;;;;5048988;28;20048;-73
2022/12/13 12:57:28;;;;;;;4.43;2.85;;;10.40;72.10;;;;;;5047670;28;20087;-73
2022/12/13 13:00:17;;;;;;;3.10;2.70;;;10.40;71.80;;;;;;5034053;28;20037;-73
2022/12/13 13:03:01;;;;;;;3.47;2.88;;;10.50;71.70;;;;;;5031574;28;20044;-74
2022/12/13 13:05:30;;;;;;;3.70;2.58;;;10.50;71.60;;;;;;5048238;28;20437;-73
2022/12/13 13:08:05;;;;;;;2.78;2.50;;;10.50;71.50;;;;;;5050430;28;20381;-72
2022/12/13 13:10:32;;;;;;;4.43;2.55;;;10.60;71.60;;;;;;5047352;28;20315;-73